createdAt,value
2022-09-10T00:00:44.185Z,101093.94
2022-09-10T00:02:45.713Z,101094.94
2022-09-10T00:04:47.160Z,101095.84
2022-09-10T00:06:48.862Z,101099.38
2022-09-10T00:08:50.383Z,101095.78
2022-09-10T00:10:51.984Z,101091.28
2022-09-10T00:12:55.729Z,101098.38
2022-09-10T00:14:57.157Z,101098.31
2022-09-10T00:16:58.577Z,101093.94
2022-09-10T00:19:03.809Z,101099.97
2022-09-10T00:21:07.982Z,101099.97
2022-09-10T00:23:10.271Z,101106.22
2022-09-10T00:25:12.207Z,101108.03
2022-09-10T00:27:13.645Z,101109.81
2022-09-10T00:29:18.443Z,101112.47
2022-09-10T00:31:21.866Z,101110.69
2022-09-10T00:33:24.459Z,101110.81
2022-09-10T00:35:25.932Z,101103.69
2022-09-10T00:37:27.615Z,101098.38
2022-09-10T00:39:29.029Z,101107.22
2022-09-10T00:41:30.969Z,101104.56
2022-09-10T00:43:55.569Z,101098.38
2022-09-10T00:45:57.064Z,101097.31
2022-09-10T00:48:23.998Z,101099.00
2022-09-10T00:50:47.061Z,101099.00
2022-09-10T00:52:52.526Z,101099.75
2022-09-10T00:54:55.180Z,101103.28
2022-09-10T00:57:01.084Z,101098.03
2022-09-10T00:59:05.020Z,101103.34
2022-09-10T01:01:07.546Z,101091.88
2022-09-10T01:03:11.434Z,101098.94
2022-09-10T01:05:14.295Z,101093.69
2022-09-10T01:07:15.930Z,101096.41
2022-09-10T01:09:19.668Z,101092.94
2022-09-10T01:11:39.572Z,101091.41
2022-09-10T01:14:13.347Z,101091.41
2022-09-10T01:16:26.205Z,101088.75
2022-09-10T01:18:39.630Z,101095.78
2022-09-10T01:20:41.256Z,101096.66
2022-09-10T01:22:42.638Z,101100.13
2022-09-10T01:24:51.305Z,101100.91
2022-09-10T01:27:11.547Z,101095.84
2022-09-10T01:29:29.235Z,101101.16
2022-09-10T01:31:42.545Z,101111.66
2022-09-10T01:33:55.375Z,101103.56
2022-09-10T01:36:01.946Z,101111.47
2022-09-10T01:38:08.288Z,101109.75
2022-09-10T01:40:11.283Z,101117.66
2022-09-10T01:42:12.761Z,101112.28
2022-09-10T01:44:47.336Z,101105.16
2022-09-10T01:47:00.057Z,101110.44
2022-09-10T01:49:37.082Z,101112.28
2022-09-10T01:52:01.400Z,101109.63
2022-09-10T01:54:14.130Z,101113.16
2022-09-10T01:56:39.924Z,101111.34
2022-09-10T01:58:43.443Z,101113.97
2022-09-10T02:00:54.572Z,101110.41
2022-09-10T02:03:01.668Z,101120.97
2022-09-10T02:05:06.276Z,101124.47
2022-09-10T02:07:10.850Z,101116.50
2022-09-10T02:09:14.856Z,101111.19
2022-09-10T02:11:16.422Z,101109.47
2022-09-10T02:13:17.943Z,101108.59
2022-09-10T02:15:22.326Z,101105.09
2022-09-10T02:17:31.040Z,101108.66
2022-09-10T02:19:32.406Z,101104.50
2022-09-10T02:21:35.689Z,101104.38
2022-09-10T02:23:46.192Z,101109.63
2022-09-10T02:25:49.148Z,101101.59
2022-09-10T02:27:51.163Z,101103.34
2022-09-10T02:29:52.617Z,101112.19
2022-09-10T02:31:54.103Z,101111.31
2022-09-10T02:33:56.646Z,101109.53
2022-09-10T02:35:58.669Z,101119.22
2022-09-10T02:38:00.129Z,101113.91
2022-09-10T02:40:02.311Z,101122.75
2022-09-10T02:42:04.005Z,101117.44
2022-09-10T02:44:05.426Z,101111.25
2022-09-10T02:46:09.692Z,101118.41
2022-09-10T02:48:11.164Z,101120.19
2022-09-10T02:50:12.658Z,101113.16
2022-09-10T02:52:14.227Z,101114.88
2022-09-10T02:54:15.719Z,101117.50
2022-09-10T02:56:19.492Z,101115.72
2022-09-10T02:58:21.037Z,101117.44
2022-09-10T03:00:22.635Z,101120.03
2022-09-10T03:02:24.129Z,101119.16
2022-09-10T03:04:25.599Z,101113.91
2022-09-10T03:06:27.654Z,101115.66
2022-09-10T03:08:29.106Z,101113.84
2022-09-10T03:10:31.824Z,101113.00
2022-09-10T03:12:33.300Z,101114.72
2022-09-10T03:14:34.742Z,101113.00
2022-09-10T03:16:36.375Z,101120.97
2022-09-10T03:18:37.953Z,101120.03
2022-09-10T03:20:41.708Z,101118.31
2022-09-10T03:22:43.154Z,101118.31
2022-09-10T03:24:44.585Z,101120.91
2022-09-10T03:26:46.056Z,101116.44
2022-09-10T03:28:48.404Z,101119.97
2022-09-10T03:30:49.859Z,101114.72
2022-09-10T03:32:51.307Z,101113.84
2022-09-10T03:34:53.304Z,101112.13
2022-09-10T03:36:54.747Z,101116.56
2022-09-10T03:38:56.167Z,101122.75
2022-09-10T03:40:58.054Z,101120.97
2022-09-10T03:42:59.492Z,101121.81
2022-09-10T03:45:00.922Z,101125.34
2022-09-10T03:47:02.697Z,101128.94
2022-09-10T03:49:07.745Z,101126.22
2022-09-10T03:51:10.797Z,101126.22
2022-09-10T03:53:13.876Z,101122.63
2022-09-10T03:55:15.814Z,101124.34
2022-09-10T03:57:17.249Z,101125.28
2022-09-10T03:59:18.860Z,101130.59
2022-09-10T04:01:20.410Z,101129.69
2022-09-10T04:03:22.240Z,101123.50
2022-09-10T04:05:25.911Z,101128.75
2022-09-10T04:07:27.341Z,101128.81
2022-09-10T04:09:28.758Z,101129.75
2022-09-10T04:11:30.223Z,101133.25
2022-09-10T04:13:32.242Z,101134.19
2022-09-10T04:15:33.970Z,101129.88
2022-09-10T04:17:35.385Z,101134.31
2022-09-10T04:19:37.968Z,101132.53
2022-09-10T04:21:39.390Z,101131.59
2022-09-10T04:23:41.283Z,101126.28
2022-09-10T04:25:42.710Z,101131.53
2022-09-10T04:27:44.776Z,101140.38
2022-09-10T04:29:46.246Z,101140.38
2022-09-10T04:31:47.831Z,101145.63
2022-09-10T04:33:49.525Z,101136.78
2022-09-10T04:35:51.017Z,101145.63
2022-09-10T04:37:52.496Z,101146.50
2022-09-10T04:39:54.299Z,101144.69
2022-09-10T04:41:55.826Z,101150.00
2022-09-10T04:43:57.292Z,101148.28
2022-09-10T04:45:59.113Z,101152.72
2022-09-10T04:48:04.798Z,101156.25
2022-09-10T04:50:08.974Z,101149.22
2022-09-10T04:52:11.879Z,101148.28
2022-09-10T04:54:16.645Z,101156.19
2022-09-10T04:56:18.732Z,101156.19
2022-09-10T04:58:21.273Z,101155.31
2022-09-10T05:00:23.105Z,101155.38
2022-09-10T05:02:24.885Z,101154.53
2022-09-10T05:04:26.427Z,101158.09
2022-09-10T05:06:27.839Z,101155.44
2022-09-10T05:08:30.138Z,101157.25
2022-09-10T05:10:32.092Z,101150.13
2022-09-10T05:12:33.522Z,101155.38
2022-09-10T05:14:34.967Z,101151.81
2022-09-10T05:16:39.046Z,101157.13
2022-09-10T05:18:40.560Z,101161.56
2022-09-10T05:20:45.023Z,101167.81
2022-09-10T05:22:46.453Z,101159.91
2022-09-10T05:24:47.910Z,101162.63
2022-09-10T05:26:49.370Z,101164.28
2022-09-10T05:28:53.224Z,101159.91
2022-09-10T05:30:54.676Z,101169.59
2022-09-10T05:32:56.201Z,101164.22
2022-09-10T05:34:57.636Z,101158.91
2022-09-10T05:36:59.071Z,101162.38
2022-09-10T05:39:02.131Z,101163.38
2022-09-10T05:41:03.660Z,101170.47
2022-09-10T05:43:05.936Z,101164.22
2022-09-10T05:45:07.911Z,101164.16
2022-09-10T05:47:09.351Z,101165.84
2022-09-10T05:49:12.556Z,101173.81
2022-09-10T05:51:14.065Z,101173.81
2022-09-10T05:53:15.653Z,101167.56
2022-09-10T05:55:17.987Z,101166.63
2022-09-10T05:57:19.446Z,101174.59
2022-09-10T05:59:20.883Z,101179.00
2022-09-10T06:01:22.324Z,101171.94
2022-09-10T06:03:24.525Z,101170.09
2022-09-10T06:05:25.954Z,101170.03
2022-09-10T06:07:28.478Z,101177.03
2022-09-10T06:09:29.991Z,101178.75
2022-09-10T06:11:31.441Z,101167.91
2022-09-10T06:13:34.043Z,101177.44
2022-09-10T06:15:36.286Z,101175.56
2022-09-10T06:17:38.400Z,101178.03
2022-09-10T06:19:43.007Z,101175.13
2022-09-10T06:21:45.978Z,101173.25
2022-09-10T06:23:47.587Z,101178.44
2022-09-10T06:25:48.997Z,101184.41
2022-09-10T06:27:50.500Z,101183.34
2022-09-10T06:29:52.113Z,101176.97
2022-09-10T06:31:53.584Z,101182.16
2022-09-10T06:33:55.093Z,101180.16
2022-09-10T06:35:58.268Z,101192.41
2022-09-10T06:37:59.755Z,101190.47
2022-09-10T06:40:01.412Z,101191.41
2022-09-10T06:42:02.917Z,101192.53
2022-09-10T06:44:04.346Z,101189.88
2022-09-10T06:46:40.743Z,101194.19
2022-09-10T06:48:42.234Z,101190.47
2022-09-10T06:50:54.353Z,101194.00
2022-09-10T06:52:57.005Z,101194.75
2022-09-10T06:54:59.304Z,101192.81
2022-09-10T06:57:01.389Z,101202.44
2022-09-10T06:59:02.896Z,101194.25
2022-09-10T07:01:13.738Z,101201.25
2022-09-10T07:03:16.712Z,101200.25
2022-09-10T07:05:18.137Z,101208.09
2022-09-10T07:07:20.137Z,101207.09
2022-09-10T07:09:21.573Z,101211.34
2022-09-10T07:11:24.148Z,101217.47
2022-09-10T07:13:27.417Z,101220.16
2022-09-10T07:15:28.869Z,101211.28
2022-09-10T07:17:32.056Z,101208.41
2022-09-10T07:19:36.166Z,101214.47
2022-09-10T07:21:37.955Z,101217.94
2022-09-10T07:23:40.641Z,101215.28
2022-09-10T07:25:42.376Z,101219.81
2022-09-10T07:27:43.813Z,101232.13
2022-09-10T07:29:45.285Z,101229.31
2022-09-10T07:31:48.199Z,101228.19
2022-09-10T07:33:50.829Z,101227.13
2022-09-10T07:35:52.263Z,101237.56
2022-09-10T07:37:54.780Z,101245.44
2022-09-10T07:39:56.307Z,101239.16
2022-09-10T07:41:57.907Z,101236.66
2022-09-10T07:43:59.473Z,101238.44
2022-09-10T07:46:04.112Z,101238.38
2022-09-10T07:48:05.877Z,101242.69
2022-09-10T07:50:07.765Z,101242.63
2022-09-10T07:52:09.316Z,101248.81
2022-09-10T07:54:10.952Z,101254.09
2022-09-10T07:56:12.933Z,101253.16
2022-09-10T07:58:14.367Z,101257.63
2022-09-10T08:00:16.849Z,101262.00
2022-09-10T08:02:18.331Z,101255.00
2022-09-10T08:04:19.816Z,101260.19
2022-09-10T08:06:21.271Z,101253.72
2022-09-10T08:08:22.731Z,101253.38
2022-09-10T08:10:24.169Z,101259.22
2022-09-10T08:12:25.989Z,101259.97
2022-09-10T08:14:27.407Z,101261.56
2022-09-10T08:16:28.975Z,101264.09
2022-09-10T08:18:30.507Z,101269.22
2022-09-10T08:20:33.246Z,101264.53
2022-09-10T08:22:34.971Z,101268.88
2022-09-10T08:24:36.521Z,101271.41
2022-09-10T08:26:37.936Z,101270.38
2022-09-10T08:28:40.231Z,101273.84
2022-09-10T08:30:41.939Z,101280.91
2022-09-10T08:32:43.493Z,101276.38
2022-09-10T08:34:44.933Z,101282.66
2022-09-10T08:36:46.616Z,101287.09
2022-09-10T08:38:50.319Z,101287.09
2022-09-10T08:40:54.283Z,101292.22
2022-09-10T08:42:56.722Z,101295.75
2022-09-10T08:45:06.989Z,101289.56
2022-09-10T08:47:21.663Z,101292.22
2022-09-10T08:49:39.374Z,101301.16
2022-09-10T08:51:55.188Z,101298.50
2022-09-10T08:54:13.790Z,101306.44
2022-09-10T08:56:21.550Z,101303.81
2022-09-10T08:58:29.721Z,101307.34
2022-09-10T09:00:34.856Z,101299.28
2022-09-10T09:03:02.305Z,101304.56
2022-09-10T09:05:12.364Z,101308.88
2022-09-10T09:07:16.037Z,101311.31
2022-09-10T09:09:17.580Z,101316.63
2022-09-10T09:11:28.275Z,101315.59
2022-09-10T09:13:41.708Z,101314.59
2022-09-10T09:16:04.963Z,101313.59
2022-09-10T09:19:02.026Z,101314.31
2022-09-10T09:21:31.067Z,101318.41
2022-09-10T09:24:14.258Z,101319.28
2022-09-10T09:26:15.930Z,101312.84
2022-09-10T09:28:39.167Z,101314.22
2022-09-10T09:30:49.360Z,101311.00
2022-09-10T09:32:51.287Z,101314.44
2022-09-10T09:34:57.268Z,101320.56
2022-09-10T09:37:03.300Z,101315.94
2022-09-10T09:39:16.552Z,101320.34
2022-09-10T09:41:28.433Z,101319.31
2022-09-10T09:43:46.390Z,101325.38
2022-09-10T09:45:47.989Z,101321.84
2022-09-10T09:47:54.336Z,101324.28
2022-09-10T09:49:56.207Z,101323.34
2022-09-10T09:51:58.614Z,101324.13
2022-09-10T09:54:39.176Z,101324.69
2022-09-10T09:56:31.837Z,101322.94
2022-09-10T09:58:36.148Z,101321.94
2022-09-10T10:00:39.054Z,101321.56
2022-09-10T10:02:40.580Z,101317.59
2022-09-10T10:05:17.053Z,101314.38
2022-09-10T10:07:25.930Z,101317.38
2022-09-10T10:09:42.272Z,101318.94
2022-09-10T10:11:53.700Z,101316.66
2022-09-10T10:14:12.035Z,101317.38
2022-09-10T10:16:22.389Z,101310.06
2022-09-10T10:18:31.638Z,101308.78
2022-09-10T10:20:38.847Z,101318.22
2022-09-10T10:22:45.535Z,101310.72
2022-09-10T10:24:49.076Z,101309.13
2022-09-10T10:26:50.649Z,101309.47
2022-09-10T10:29:01.455Z,101312.50
2022-09-10T10:31:04.650Z,101310.16
2022-09-10T10:33:18.044Z,101309.81
2022-09-10T10:35:19.497Z,101313.47
2022-09-10T10:37:39.370Z,101312.06
2022-09-10T10:39:49.037Z,101314.66
2022-09-10T10:41:50.842Z,101309.47
2022-09-10T10:44:04.423Z,101314.47
2022-09-10T10:46:17.069Z,101319.41
2022-09-10T10:48:47.806Z,101316.03
2022-09-10T10:50:57.681Z,101314.66
2022-09-10T10:53:02.156Z,101311.81
2022-09-10T10:55:23.201Z,101320.44
2022-09-10T10:57:46.484Z,101311.13
2022-09-10T10:59:47.910Z,101312.50
2022-09-10T11:02:33.241Z,101313.03
2022-09-10T11:04:44.098Z,101307.34
2022-09-10T11:06:49.717Z,101313.31
2022-09-10T11:09:22.817Z,101307.88
2022-09-10T11:11:34.812Z,101307.28
2022-09-10T11:14:06.505Z,101310.72
2022-09-10T11:16:16.706Z,101296.78
2022-09-10T11:18:33.356Z,101304.13
2022-09-10T11:20:44.027Z,101298.78
2022-09-10T11:22:55.741Z,101299.03
2022-09-10T11:25:04.276Z,101297.84
2022-09-10T11:27:11.568Z,101301.63
2022-09-10T11:29:31.809Z,101304.03
2022-09-10T11:31:40.442Z,101309.41
2022-09-10T11:34:00.271Z,101304.34
2022-09-10T11:36:12.442Z,101298.19
2022-09-10T11:38:26.197Z,101301.97
2022-09-10T11:40:52.266Z,101300.44
2022-09-10T11:42:58.817Z,101304.59
2022-09-10T11:45:14.075Z,101298.63
2022-09-10T11:47:22.381Z,101295.75
2022-09-10T11:49:29.459Z,101297.28
2022-09-10T11:51:39.998Z,101296.88
2022-09-10T11:53:41.562Z,101295.16
2022-09-10T11:55:45.777Z,101292.31
2022-09-10T11:58:15.797Z,101298.63
2022-09-10T12:00:19.435Z,101294.66
2022-09-10T12:02:39.188Z,101290.06
2022-09-10T12:05:01.043Z,101294.88
2022-09-10T12:07:14.772Z,101290.03
2022-09-10T12:09:23.231Z,101279.91
2022-09-10T12:11:31.632Z,101284.41
2022-09-10T12:13:36.413Z,101287.34
2022-09-10T12:15:38.188Z,101286.41
2022-09-10T12:17:43.697Z,101286.31
2022-09-10T12:19:50.651Z,101284.31
2022-09-10T12:21:57.855Z,101280.22
2022-09-10T12:24:03.445Z,101279.78
2022-09-10T12:26:11.682Z,101279.50
2022-09-10T12:28:50.675Z,101285.63
2022-09-10T12:30:58.762Z,101284.53
2022-09-10T12:33:22.306Z,101283.34
2022-09-10T12:35:35.649Z,101280.53
2022-09-10T12:37:37.143Z,101281.41
2022-09-10T12:39:38.669Z,101283.25
2022-09-10T12:41:40.085Z,101283.41
2022-09-10T12:43:41.631Z,101283.53
2022-09-10T12:46:17.643Z,101290.50
2022-09-10T12:48:19.133Z,101292.63
2022-09-10T12:50:28.735Z,101287.56
2022-09-10T12:52:48.613Z,101292.31
2022-09-10T12:55:31.911Z,101279.97
2022-09-10T12:58:11.929Z,101282.06
2022-09-10T13:00:30.603Z,101282.53
2022-09-10T13:02:36.169Z,101286.94
2022-09-10T13:04:37.923Z,101286.66
2022-09-10T13:06:42.882Z,101284.47
2022-09-10T13:08:47.624Z,101294.81
2022-09-10T13:11:02.856Z,101281.94
2022-09-10T13:13:18.191Z,101290.56
2022-09-10T13:15:23.270Z,101287.69
2022-09-10T13:17:39.851Z,101280.41
2022-09-10T13:19:42.969Z,101283.84
2022-09-10T13:21:44.347Z,101289.22
2022-09-10T13:23:48.560Z,101281.16
2022-09-10T13:25:51.476Z,101283.63
2022-09-10T13:27:53.476Z,101285.25
2022-09-10T13:30:23.059Z,101280.84
2022-09-10T13:32:29.987Z,101274.81
2022-09-10T13:34:59.151Z,101283.84
2022-09-10T13:37:31.594Z,101282.13
2022-09-10T13:39:53.769Z,101278.38
2022-09-10T13:42:20.691Z,101269.44
2022-09-10T13:44:27.823Z,101278.66
2022-09-10T13:46:46.316Z,101282.13
2022-09-10T13:49:06.682Z,101282.13
2022-09-10T13:51:16.891Z,101270.41
2022-09-10T13:53:20.626Z,101275.47
2022-09-10T13:55:26.492Z,101269.81
2022-09-10T13:57:32.640Z,101272.94
2022-09-10T13:59:36.849Z,101277.22
2022-09-10T14:01:52.438Z,101277.22
2022-09-10T14:03:54.000Z,101272.94
2022-09-10T14:06:21.655Z,101273.47
2022-09-10T14:08:28.251Z,101273.34
2022-09-10T14:10:30.874Z,101272.50
2022-09-10T14:12:35.207Z,101280.25
2022-09-10T14:14:42.218Z,101273.81
2022-09-10T14:16:50.111Z,101272.00
2022-09-10T14:18:57.356Z,101279.91
2022-09-10T14:21:00.082Z,101272.72
2022-09-10T14:23:14.144Z,101282.66
2022-09-10T14:25:32.723Z,101281.31
2022-09-10T14:27:42.162Z,101281.50
2022-09-10T14:29:43.997Z,101282.56
2022-09-10T14:31:45.448Z,101289.88
2022-09-10T14:33:47.039Z,101288.34
2022-09-10T14:35:51.615Z,101291.34
2022-09-10T14:37:54.134Z,101287.97
2022-09-10T14:39:56.579Z,101290.75
2022-09-10T14:42:10.439Z,101292.38
2022-09-10T14:44:20.925Z,101285.75
2022-09-10T14:46:51.483Z,101279.03
2022-09-10T14:48:58.857Z,101293.69
2022-09-10T14:51:22.739Z,101291.75
2022-09-10T14:53:24.162Z,101295.22
2022-09-10T14:55:28.300Z,101295.50
2022-09-10T14:57:29.734Z,101283.25
2022-09-10T14:59:38.796Z,101290.63
2022-09-10T15:01:45.588Z,101288.16
2022-09-10T15:03:47.035Z,101292.56
2022-09-10T15:05:49.116Z,101291.69
2022-09-10T15:07:50.530Z,101291.78
2022-09-10T15:09:53.499Z,101292.84
2022-09-10T15:12:27.791Z,101301.00
2022-09-10T15:14:30.052Z,101303.88
2022-09-10T15:16:31.558Z,101311.19
2022-09-10T15:18:33.028Z,101309.75
2022-09-10T15:20:34.485Z,101310.91
2022-09-10T15:22:35.928Z,101305.84
2022-09-10T15:24:52.733Z,101311.38
2022-09-10T15:26:59.037Z,101312.63
2022-09-10T15:29:00.552Z,101320.88
2022-09-10T15:31:02.079Z,101319.25
2022-09-10T15:33:07.474Z,101315.69
2022-09-10T15:35:09.574Z,101320.69
2022-09-10T15:37:11.075Z,101317.41
2022-09-10T15:39:12.885Z,101317.81
2022-09-10T15:41:14.348Z,101320.69
2022-09-10T15:43:19.093Z,101320.97
2022-09-10T15:45:20.543Z,101321.19
2022-09-10T15:47:22.000Z,101316.97
2022-09-10T15:49:23.409Z,101319.75
2022-09-10T15:51:24.941Z,101318.13
2022-09-10T15:53:26.394Z,101317.16
2022-09-10T15:55:27.855Z,101312.75
2022-09-10T15:57:30.975Z,101319.06
2022-09-10T15:59:32.644Z,101307.47
2022-09-10T16:01:36.089Z,101313.72
2022-09-10T16:03:39.603Z,101304.91
2022-09-10T16:05:41.601Z,101309.50
2022-09-10T16:07:44.462Z,101311.13
2022-09-10T16:09:45.933Z,101315.72
2022-09-10T16:11:48.242Z,101321.94
2022-09-10T16:13:50.549Z,101321.94
2022-09-10T16:16:19.997Z,101318.69
2022-09-10T16:18:21.440Z,101322.31
2022-09-10T16:20:22.887Z,101318.88
2022-09-10T16:22:24.322Z,101318.78
2022-09-10T16:24:25.754Z,101320.59
2022-09-10T16:26:30.746Z,101320.69
2022-09-10T16:28:33.182Z,101330.63
2022-09-10T16:30:35.109Z,101324.59
2022-09-10T16:32:36.554Z,101325.56
2022-09-10T16:34:38.628Z,101327.47
2022-09-10T16:36:40.303Z,101333.09
2022-09-10T16:38:43.561Z,101336.91
2022-09-10T16:40:45.603Z,101340.56
2022-09-10T16:42:47.236Z,101339.78
2022-09-10T16:44:49.067Z,101347.03
2022-09-10T16:46:50.801Z,101346.44
2022-09-10T16:48:53.677Z,101348.53
2022-09-10T16:51:25.704Z,101356.75
2022-09-10T16:53:27.142Z,101351.75
2022-09-10T16:55:29.797Z,101361.78
2022-09-10T16:57:31.257Z,101357.53
2022-09-10T16:59:32.673Z,101361.25
2022-09-10T17:01:35.744Z,101363.25
2022-09-10T17:03:45.131Z,101360.94
2022-09-10T17:05:50.071Z,101366.44
2022-09-10T17:07:52.295Z,101368.31
2022-09-10T17:09:56.403Z,101372.97
2022-09-10T17:12:01.797Z,101370.72
2022-09-10T17:14:03.621Z,101369.00
2022-09-10T17:16:23.411Z,101371.06
2022-09-10T17:18:24.912Z,101370.31
2022-09-10T17:20:26.317Z,101371.34
2022-09-10T17:22:27.777Z,101377.91
2022-09-10T17:24:29.280Z,101373.50
2022-09-10T17:26:32.528Z,101380.84
2022-09-10T17:28:34.987Z,101389.03
2022-09-10T17:30:36.490Z,101388.34
2022-09-10T17:32:37.995Z,101391.09
2022-09-10T17:34:39.450Z,101391.25
2022-09-10T17:36:43.120Z,101395.91
2022-09-10T17:38:45.987Z,101401.34
2022-09-10T17:40:58.623Z,101398.81
2022-09-10T17:43:00.529Z,101403.56
2022-09-10T17:45:02.048Z,101403.56
2022-09-10T17:47:03.513Z,101409.94
2022-09-10T17:49:05.194Z,101412.78
2022-09-10T17:51:07.145Z,101407.59
2022-09-10T17:53:08.544Z,101405.00
2022-09-10T17:55:09.996Z,101401.56
2022-09-10T17:57:11.473Z,101405.41
2022-09-10T17:59:16.514Z,101405.41
2022-09-10T18:01:29.115Z,101402.91
2022-09-10T18:03:31.710Z,101415.41
2022-09-10T18:05:36.582Z,101413.69
2022-09-10T18:07:38.043Z,101407.56
2022-09-10T18:09:39.485Z,101420.16
2022-09-10T18:11:41.665Z,101425.72
2022-09-10T18:13:47.636Z,101427.53
2022-09-10T18:15:49.368Z,101426.66
2022-09-10T18:17:51.010Z,101431.19
2022-09-10T18:19:52.490Z,101436.84
2022-09-10T18:21:53.941Z,101445.81
2022-09-10T18:24:00.543Z,101445.03
2022-09-10T18:26:11.826Z,101448.91
2022-09-10T18:28:13.319Z,101450.78
2022-09-10T18:30:14.866Z,101456.22
2022-09-10T18:32:16.306Z,101458.09
2022-09-10T18:34:23.860Z,101457.31
2022-09-10T18:36:26.278Z,101450.38
2022-09-10T18:38:27.796Z,101461.09
2022-09-10T18:40:29.535Z,101462.19
2022-09-10T18:42:30.963Z,101461.31
2022-09-10T18:44:34.358Z,101462.34
2022-09-10T18:46:36.255Z,101467.84
2022-09-10T18:48:38.018Z,101468.81
2022-09-10T18:50:39.437Z,101463.63
2022-09-10T18:52:41.517Z,101478.09
2022-09-10T18:54:46.587Z,101480.75
2022-09-10T18:56:49.505Z,101487.91
2022-09-10T18:58:53.486Z,101486.34
2022-09-10T19:00:58.492Z,101483.81
2022-09-10T19:03:00.088Z,101488.38
2022-09-10T19:05:17.573Z,101485.84
2022-09-10T19:07:19.033Z,101496.75
2022-09-10T19:09:28.805Z,101496.03
2022-09-10T19:11:33.533Z,101497.22
2022-09-10T19:13:35.460Z,101499.31
2022-09-10T19:15:36.960Z,101495.84
2022-09-10T19:17:38.663Z,101505.84
2022-09-10T19:19:40.151Z,101506.88
2022-09-10T19:21:41.623Z,101508.84
2022-09-10T19:23:44.096Z,101508.13
2022-09-10T19:25:56.659Z,101509.22
2022-09-10T19:27:58.114Z,101518.31
2022-09-10T19:29:59.532Z,101520.19
2022-09-10T19:32:01.841Z,101522.19
2022-09-10T19:34:05.668Z,101518.00
2022-09-10T19:36:09.690Z,101517.28
2022-09-10T19:38:33.932Z,101524.59
2022-09-10T19:40:33.530Z,101522.22
2022-09-10T19:42:34.973Z,101522.34
2022-09-10T19:44:36.700Z,101526.97
2022-09-10T19:46:39.144Z,101526.38
2022-09-10T19:48:41.104Z,101528.38
2022-09-10T19:50:42.594Z,101536.59
2022-09-10T19:52:44.118Z,101534.06
2022-09-10T19:54:45.563Z,101548.41
2022-09-10T19:56:46.991Z,101547.66
2022-09-10T19:58:50.566Z,101553.06
2022-09-10T20:00:52.041Z,101551.34
2022-09-10T20:02:53.874Z,101554.09
2022-09-10T20:04:56.313Z,101549.75
2022-09-10T20:06:57.794Z,101549.03
2022-09-10T20:08:59.477Z,101559.81
2022-09-10T20:11:05.943Z,101551.91
2022-09-10T20:13:08.300Z,101551.97
2022-09-10T20:15:09.979Z,101562.69
2022-09-10T20:17:12.451Z,101559.34
2022-09-10T20:19:18.429Z,101572.97
2022-09-10T20:21:23.308Z,101562.56
2022-09-10T20:23:24.722Z,101570.88
2022-09-10T20:25:26.650Z,101570.97
2022-09-10T20:27:28.102Z,101563.13
2022-09-10T20:29:32.716Z,101571.22
2022-09-10T20:31:36.228Z,101572.09
2022-09-10T20:33:45.212Z,101568.56
2022-09-10T20:35:46.625Z,101558.84
2022-09-10T20:37:51.657Z,101554.38
2022-09-10T20:39:53.780Z,101555.31
2022-09-10T20:41:55.305Z,101554.44
2022-09-10T20:43:58.926Z,101558.91
2022-09-10T20:46:01.341Z,101551.03
2022-09-10T20:48:03.387Z,101554.63
2022-09-10T20:50:05.173Z,101548.56
2022-09-10T20:52:06.983Z,101557.53
2022-09-10T20:54:13.822Z,101555.81
2022-09-10T20:56:17.849Z,101559.41
2022-09-10T20:58:19.392Z,101559.59
2022-09-10T21:00:20.833Z,101564.25
2022-09-10T21:02:22.449Z,101564.28
2022-09-10T21:04:24.533Z,101566.16
2022-09-10T21:06:28.572Z,101563.63
2022-09-10T21:08:31.554Z,101567.28
2022-09-10T21:10:37.309Z,101567.31
2022-09-10T21:12:38.776Z,101562.97
2022-09-10T21:14:40.291Z,101559.44
2022-09-10T21:16:43.232Z,101566.53
2022-09-10T21:18:55.055Z,101567.53
2022-09-10T21:21:08.449Z,101563.25
2022-09-10T21:23:09.876Z,101568.69
2022-09-10T21:25:11.326Z,101573.28
2022-09-10T21:27:12.766Z,101566.34
2022-09-10T21:29:16.829Z,101577.09
2022-09-10T21:31:18.299Z,101571.03
2022-09-10T21:33:19.879Z,101572.84
2022-09-10T21:35:21.324Z,101568.44
2022-09-10T21:37:22.752Z,101562.25
2022-09-10T21:39:24.427Z,101570.34
2022-09-10T21:41:37.666Z,101575.72
2022-09-10T21:43:42.784Z,101570.53
2022-09-10T21:45:45.538Z,101576.81
2022-09-10T21:47:47.049Z,101573.34
2022-09-10T21:49:48.788Z,101573.44
2022-09-10T21:51:50.773Z,101572.63
2022-09-10T21:53:56.622Z,101576.19
2022-09-10T21:55:59.367Z,101564.72
2022-09-10T21:58:00.800Z,101578.09
2022-09-10T22:00:02.555Z,101574.50
2022-09-10T22:02:04.201Z,101587.81
2022-09-10T22:04:05.742Z,101591.41
2022-09-10T22:06:18.962Z,101597.69
2022-09-10T22:08:20.450Z,101592.44
2022-09-10T22:10:21.893Z,101595.16
2022-09-10T22:12:23.474Z,101601.41
2022-09-10T22:14:25.426Z,101597.06
2022-09-10T22:16:27.931Z,101601.50
2022-09-10T22:18:29.503Z,101599.78
2022-09-10T22:20:33.476Z,101598.91
2022-09-10T22:22:34.909Z,101601.63
2022-09-10T22:24:36.347Z,101607.88
2022-09-10T22:26:42.364Z,101606.13
2022-09-10T22:28:44.677Z,101614.16
2022-09-10T22:30:46.181Z,101604.50
2022-09-10T22:32:47.584Z,101610.69
2022-09-10T22:34:49.018Z,101609.94
2022-09-10T22:36:50.557Z,101615.38
2022-09-10T22:38:57.067Z,101616.34
2022-09-10T22:41:03.182Z,101616.41
2022-09-10T22:43:04.661Z,101623.56
2022-09-10T22:45:07.326Z,101622.75
2022-09-10T22:47:08.727Z,101621.06
2022-09-10T22:49:10.607Z,101626.41
2022-09-10T22:51:18.196Z,101620.22
2022-09-10T22:53:19.650Z,101625.59
2022-09-10T22:55:21.107Z,101620.28
2022-09-10T22:57:23.204Z,101630.03
2022-09-10T22:59:24.896Z,101625.66
2022-09-10T23:01:30.945Z,101631.94
2022-09-10T23:03:32.881Z,101633.91
2022-09-10T23:05:35.313Z,101638.41
2022-09-10T23:07:37.055Z,101644.69
2022-09-10T23:09:38.748Z,101645.59
2022-09-10T23:11:41.482Z,101651.78
2022-09-10T23:13:44.192Z,101650.94
2022-09-10T23:15:46.292Z,101653.63
2022-09-10T23:17:47.836Z,101659.88
2022-09-10T23:19:49.266Z,101656.41
2022-09-10T23:21:53.864Z,101659.16
2022-09-10T23:23:57.670Z,101657.47
2022-09-10T23:26:07.284Z,101662.94
2022-09-10T23:28:09.525Z,101661.31
2022-09-10T23:30:11.795Z,101668.47
2022-09-10T23:32:13.282Z,101674.69
2022-09-10T23:34:17.870Z,101678.22
2022-09-10T23:36:19.406Z,101679.19
2022-09-10T23:38:21.299Z,101673.91
2022-09-10T23:40:27.923Z,101671.28
2022-09-10T23:42:31.354Z,101675.22
2022-09-10T23:44:33.087Z,101677.81
2022-09-10T23:46:35.687Z,101677.78
2022-09-10T23:48:37.761Z,101685.75
2022-09-10T23:50:39.186Z,101680.44
2022-09-10T23:52:40.687Z,101686.63
2022-09-10T23:54:42.145Z,101682.25